createdAt,value
2022-10-01T00:01:19.485Z,11.60
2022-10-01T00:03:47.936Z,11.70
2022-10-01T00:06:19.262Z,11.60
2022-10-01T00:08:49.454Z,11.60
2022-10-01T00:11:25.359Z,11.70
2022-10-01T00:13:54.373Z,11.70
2022-10-01T00:16:25.303Z,11.70
2022-10-01T00:18:53.915Z,11.80
2022-10-01T00:21:27.566Z,11.70
2022-10-01T00:24:01.246Z,11.80
2022-10-01T00:26:32.337Z,11.80
2022-10-01T00:29:10.649Z,11.80
2022-10-01T00:31:38.574Z,11.80
2022-10-01T00:34:06.556Z,11.80
2022-10-01T00:36:34.185Z,11.90
2022-10-01T00:39:02.165Z,11.90
2022-10-01T00:41:33.900Z,12.00
2022-10-01T00:44:37.454Z,12.00
2022-10-01T00:47:32.362Z,12.00
2022-10-01T00:50:18.012Z,12.00
2022-10-01T00:52:52.159Z,12.00
2022-10-01T00:55:38.153Z,12.00
2022-10-01T00:58:05.923Z,12.00
2022-10-01T01:00:33.198Z,12.00
2022-10-01T01:03:00.134Z,12.00
2022-10-01T01:05:27.214Z,12.00
2022-10-01T01:07:54.730Z,12.00
2022-10-01T01:10:49.350Z,12.00
2022-10-01T01:13:44.491Z,12.10
2022-10-01T01:16:24.307Z,12.10
2022-10-01T01:19:27.062Z,12.10
2022-10-01T01:22:01.533Z,12.10
2022-10-01T01:24:50.353Z,12.20
2022-10-01T01:28:02.452Z,12.20
2022-10-01T01:30:32.957Z,12.20
2022-10-01T01:33:18.281Z,12.30
2022-10-01T01:35:55.110Z,12.30
2022-10-01T01:38:29.110Z,12.30
2022-10-01T01:41:02.320Z,12.30
2022-10-01T01:43:34.380Z,12.30
2022-10-01T01:46:05.595Z,12.30
2022-10-01T01:48:36.536Z,12.30
2022-10-01T01:51:26.195Z,12.30
2022-10-01T01:53:54.669Z,12.30
2022-10-01T01:56:21.782Z,12.30
2022-10-01T01:58:51.700Z,12.30
2022-10-01T02:01:43.467Z,12.40
2022-10-01T02:04:34.610Z,12.40
2022-10-01T02:07:37.602Z,12.40
2022-10-01T02:10:37.058Z,12.40
2022-10-01T02:13:29.430Z,12.40
2022-10-01T02:16:30.654Z,12.40
2022-10-01T02:19:09.483Z,12.50
2022-10-01T02:22:01.638Z,12.50
2022-10-01T02:24:40.025Z,12.60
2022-10-01T02:27:25.160Z,12.70
2022-10-01T02:29:56.280Z,12.70
2022-10-01T02:32:24.135Z,12.70
2022-10-01T02:34:52.894Z,12.80
2022-10-01T02:37:24.805Z,12.80
2022-10-01T02:39:55.229Z,12.80
2022-10-01T02:42:24.444Z,12.90
2022-10-01T02:44:53.157Z,13.00
2022-10-01T02:47:40.958Z,13.10
2022-10-01T02:50:09.465Z,13.10
2022-10-01T02:52:53.674Z,13.20
2022-10-01T02:55:28.827Z,13.20
2022-10-01T02:58:00.156Z,13.20
2022-10-01T03:00:28.648Z,13.30
2022-10-01T03:02:55.661Z,13.30
2022-10-01T03:05:23.757Z,13.30
2022-10-01T03:07:50.849Z,13.30
2022-10-01T03:10:18.294Z,13.30
2022-10-01T03:12:46.672Z,13.30
2022-10-01T03:15:16.427Z,13.40
2022-10-01T03:17:43.466Z,13.40
2022-10-01T03:20:11.153Z,13.40
2022-10-01T03:22:38.585Z,13.40
2022-10-01T03:25:05.993Z,13.50
2022-10-01T03:27:32.875Z,13.50
2022-10-01T03:29:59.970Z,13.50
2022-10-01T03:32:26.871Z,13.50
2022-10-01T03:34:53.750Z,13.50
2022-10-01T03:37:20.652Z,13.50
2022-10-01T03:39:47.618Z,13.50
2022-10-01T03:42:16.018Z,13.60
2022-10-01T03:44:43.791Z,13.60
2022-10-01T03:47:11.327Z,13.60
2022-10-01T03:49:38.305Z,13.60
2022-10-01T03:52:06.574Z,13.60
2022-10-01T03:54:34.042Z,13.60
2022-10-01T03:57:00.987Z,13.70
2022-10-01T03:59:28.100Z,13.60
2022-10-01T04:01:55.652Z,13.60
2022-10-01T04:04:23.018Z,13.70
2022-10-01T04:06:49.933Z,13.70
2022-10-01T04:09:16.904Z,13.70
2022-10-01T04:11:53.081Z,13.70
2022-10-01T04:14:23.030Z,13.80
2022-10-01T04:16:52.757Z,13.80
2022-10-01T04:19:20.300Z,13.80
2022-10-01T04:21:47.995Z,13.80
2022-10-01T04:24:15.112Z,13.80
2022-10-01T04:26:42.070Z,13.80
2022-10-01T04:29:09.050Z,13.90
2022-10-01T04:31:36.440Z,13.90
2022-10-01T04:34:03.982Z,13.90
2022-10-01T04:36:31.213Z,13.90
2022-10-01T04:39:02.118Z,13.90
2022-10-01T04:41:31.528Z,13.90
2022-10-01T04:44:00.403Z,13.90
2022-10-01T04:46:30.385Z,13.90
2022-10-01T04:48:57.864Z,13.90
2022-10-01T04:51:25.188Z,13.90
2022-10-01T04:53:52.324Z,13.90
2022-10-01T04:56:19.245Z,13.90
2022-10-01T04:58:46.146Z,13.90
2022-10-01T05:01:13.262Z,13.90
2022-10-01T05:03:41.271Z,14.00
2022-10-01T05:06:08.190Z,13.90
2022-10-01T05:08:35.166Z,13.90
2022-10-01T05:11:03.143Z,13.90
2022-10-01T05:13:31.904Z,13.90
2022-10-01T05:15:59.371Z,14.00
2022-10-01T05:18:26.489Z,14.00
2022-10-01T05:20:53.460Z,14.00
2022-10-01T05:23:20.414Z,14.00
2022-10-01T05:25:47.389Z,14.00
2022-10-01T05:28:21.275Z,14.00
2022-10-01T05:30:50.999Z,14.10
2022-10-01T05:33:18.125Z,14.10
2022-10-01T05:35:45.092Z,14.00
2022-10-01T05:38:12.071Z,14.00
2022-10-01T05:40:38.993Z,14.00
2022-10-01T05:43:05.974Z,14.00
2022-10-01T05:45:33.163Z,14.00
2022-10-01T05:48:06.353Z,14.10
2022-10-01T05:50:39.266Z,14.10
2022-10-01T05:53:07.890Z,14.10
2022-10-01T05:55:35.021Z,14.10
2022-10-01T05:58:04.371Z,14.10
2022-10-01T06:00:33.382Z,14.10
2022-10-01T06:03:02.645Z,14.00
2022-10-01T06:05:31.871Z,14.10
2022-10-01T06:07:59.864Z,14.10
2022-10-01T06:10:30.349Z,14.10
2022-10-01T06:13:01.892Z,14.10
2022-10-01T06:15:34.280Z,14.20
2022-10-01T06:18:08.852Z,14.10
2022-10-01T06:20:36.403Z,14.10
2022-10-01T06:23:09.567Z,14.10
2022-10-01T06:25:38.402Z,14.10
2022-10-01T06:28:07.660Z,14.10
2022-10-01T06:30:38.148Z,14.10
2022-10-01T06:33:06.617Z,14.10
2022-10-01T06:35:35.529Z,14.10
2022-10-01T06:38:03.002Z,14.10
2022-10-01T06:40:31.216Z,14.20
2022-10-01T06:42:59.024Z,14.10
2022-10-01T06:45:28.106Z,14.20
2022-10-01T06:47:57.438Z,14.20
2022-10-01T06:50:25.792Z,14.20
2022-10-01T06:52:53.245Z,14.30
2022-10-01T06:55:25.329Z,14.40
2022-10-01T06:58:01.926Z,14.40
2022-10-01T07:00:32.165Z,14.50
2022-10-01T07:03:00.719Z,14.60
2022-10-01T07:05:28.300Z,14.60
2022-10-01T07:07:55.198Z,14.70
2022-10-01T07:10:23.280Z,14.70
2022-10-01T07:12:51.352Z,14.70
2022-10-01T07:15:22.801Z,14.80
2022-10-01T07:17:52.568Z,14.80
2022-10-01T07:20:21.140Z,14.90
2022-10-01T07:22:56.275Z,15.00
2022-10-01T07:25:23.241Z,15.20
2022-10-01T07:27:50.175Z,15.30
2022-10-01T07:30:17.222Z,15.30
2022-10-01T07:32:45.074Z,15.50
2022-10-01T07:35:12.009Z,15.60
2022-10-01T07:37:38.905Z,15.60
2022-10-01T07:40:07.612Z,15.80
2022-10-01T07:42:35.707Z,16.40
2022-10-01T07:45:06.506Z,17.10
2022-10-01T07:47:33.477Z,17.50
2022-10-01T07:50:00.427Z,17.50
2022-10-01T07:52:27.367Z,17.70
2022-10-01T07:54:54.260Z,17.50
2022-10-01T07:57:21.175Z,16.70
2022-10-01T07:59:51.212Z,16.30
2022-10-01T08:02:20.497Z,15.90
2022-10-01T08:05:05.790Z,15.70
2022-10-01T08:07:32.754Z,15.90
2022-10-01T08:09:59.683Z,15.90
2022-10-01T08:12:30.451Z,16.20
2022-10-01T08:14:57.403Z,16.30
2022-10-01T08:17:29.190Z,16.50
2022-10-01T08:19:56.338Z,16.70
2022-10-01T08:22:23.269Z,16.60
2022-10-01T08:24:50.159Z,16.30
2022-10-01T08:27:17.072Z,16.10
2022-10-01T08:29:44.043Z,16.20
2022-10-01T08:32:11.214Z,16.60
2022-10-01T08:34:38.151Z,16.90
2022-10-01T08:37:05.391Z,16.70
2022-10-01T08:39:32.376Z,16.60
2022-10-01T08:42:38.338Z,17.00
2022-10-01T08:45:14.605Z,17.40
2022-10-01T08:47:49.445Z,18.10
2022-10-01T08:50:32.980Z,18.30
2022-10-01T08:53:05.106Z,18.40
2022-10-01T08:55:37.374Z,18.30
2022-10-01T08:58:11.408Z,18.10
2022-10-01T09:00:42.716Z,18.20
2022-10-01T09:03:13.932Z,18.50
2022-10-01T09:06:10.612Z,18.20
2022-10-01T09:08:49.533Z,18.00
2022-10-01T09:11:47.151Z,18.00
2022-10-01T09:14:35.094Z,17.90
2022-10-01T09:17:34.427Z,18.20
2022-10-01T09:20:36.402Z,18.40
2022-10-01T09:23:23.686Z,18.50
2022-10-01T09:25:51.348Z,18.30
2022-10-01T09:28:33.953Z,18.20
2022-10-01T09:31:11.291Z,18.10
2022-10-01T09:33:43.413Z,18.10
2022-10-01T09:36:35.600Z,18.20
2022-10-01T09:39:20.058Z,18.10
2022-10-01T09:41:48.348Z,18.00
2022-10-01T09:44:34.128Z,18.10
2022-10-01T09:47:01.255Z,17.90
2022-10-01T09:49:39.597Z,17.70
2022-10-01T09:52:41.393Z,17.60
2022-10-01T09:55:42.465Z,17.80
2022-10-01T09:58:16.670Z,17.90
2022-10-01T10:00:45.092Z,18.10
2022-10-01T10:03:28.852Z,18.40
2022-10-01T10:05:57.172Z,18.60
2022-10-01T10:08:34.309Z,18.80
2022-10-01T10:11:06.264Z,19.00
2022-10-01T10:13:39.273Z,18.90
2022-10-01T10:16:26.597Z,19.00
2022-10-01T10:19:16.762Z,19.00
2022-10-01T10:22:00.617Z,19.00
2022-10-01T10:24:34.292Z,19.00
2022-10-01T10:27:06.054Z,18.80
2022-10-01T10:29:36.038Z,18.90
2022-10-01T10:32:22.437Z,19.10
2022-10-01T10:34:50.207Z,19.30
2022-10-01T10:37:23.433Z,19.50
2022-10-01T10:39:52.306Z,19.80
2022-10-01T10:42:19.894Z,20.20
2022-10-01T10:44:52.043Z,20.40
2022-10-01T10:47:20.960Z,20.50
2022-10-01T10:49:53.680Z,20.70
2022-10-01T10:52:34.409Z,20.30
2022-10-01T10:55:20.851Z,19.80
2022-10-01T10:57:47.770Z,19.30
2022-10-01T11:00:23.466Z,18.80
2022-10-01T11:03:04.682Z,18.70
2022-10-01T11:05:34.452Z,18.80
2022-10-01T11:08:08.323Z,18.70
2022-10-01T11:11:16.976Z,18.70
2022-10-01T11:14:14.536Z,18.70
2022-10-01T11:17:23.582Z,18.60
2022-10-01T11:20:21.074Z,18.40
2022-10-01T11:23:20.516Z,18.10
2022-10-01T11:26:29.024Z,18.40
2022-10-01T11:29:03.924Z,18.90
2022-10-01T11:31:57.243Z,19.30
2022-10-01T11:34:33.182Z,19.70
2022-10-01T11:37:31.919Z,19.90
2022-10-01T11:40:03.639Z,19.90
2022-10-01T11:42:35.613Z,19.50
2022-10-01T11:45:06.283Z,19.50
2022-10-01T11:48:09.005Z,19.70
2022-10-01T11:50:41.899Z,19.60
2022-10-01T11:53:33.828Z,19.30
2022-10-01T11:56:38.040Z,19.40
2022-10-01T11:59:33.668Z,19.80
2022-10-01T12:02:28.398Z,20.30
2022-10-01T12:05:20.359Z,20.60
2022-10-01T12:08:15.465Z,20.50
2022-10-01T12:11:01.264Z,20.10
2022-10-01T12:13:34.710Z,19.90
2022-10-01T12:16:14.485Z,19.40
2022-10-01T12:18:47.597Z,19.00
2022-10-01T12:21:25.482Z,18.80
2022-10-01T12:24:30.498Z,18.90
2022-10-01T12:27:26.711Z,19.40
2022-10-01T12:30:29.164Z,19.60
2022-10-01T12:33:20.845Z,19.60
2022-10-01T12:36:11.612Z,19.60
2022-10-01T12:39:13.740Z,19.90
2022-10-01T12:42:09.294Z,20.40
2022-10-01T12:45:00.061Z,20.90
2022-10-01T12:47:49.688Z,21.10
2022-10-01T12:50:27.237Z,21.40
2022-10-01T12:53:31.188Z,21.20
2022-10-01T12:56:08.542Z,21.30
2022-10-01T12:59:16.174Z,21.30
2022-10-01T13:02:16.531Z,21.10
2022-10-01T13:04:56.823Z,21.20
2022-10-01T13:08:03.333Z,21.20
2022-10-01T13:10:48.913Z,21.40
2022-10-01T13:13:25.662Z,21.50
2022-10-01T13:16:37.037Z,21.30
2022-10-01T13:19:24.967Z,21.10
2022-10-01T13:22:07.683Z,20.80
2022-10-01T13:25:00.949Z,20.60
2022-10-01T13:27:36.346Z,20.20
2022-10-01T13:30:16.379Z,20.20
2022-10-01T13:32:53.879Z,20.20
2022-10-01T13:35:34.353Z,20.20
2022-10-01T13:38:16.845Z,20.20
2022-10-01T13:40:44.396Z,20.20
2022-10-01T13:43:21.920Z,20.20
2022-10-01T13:45:52.622Z,20.10
2022-10-01T13:48:23.676Z,19.90
2022-10-01T13:51:02.941Z,19.60
2022-10-01T13:53:42.174Z,19.30
2022-10-01T13:56:14.353Z,19.20
2022-10-01T13:58:48.594Z,19.40
2022-10-01T14:01:24.308Z,19.60
2022-10-01T14:03:55.950Z,19.70
2022-10-01T14:06:36.821Z,19.60
2022-10-01T14:09:35.484Z,19.40
2022-10-01T14:12:56.472Z,19.10
2022-10-01T14:16:03.259Z,18.80
2022-10-01T14:18:43.757Z,18.80
2022-10-01T14:21:49.387Z,18.70
2022-10-01T14:24:29.851Z,18.70
2022-10-01T14:27:12.768Z,18.70
2022-10-01T14:30:03.917Z,18.80
2022-10-01T14:33:09.702Z,18.90
2022-10-01T14:35:56.542Z,19.00
2022-10-01T14:38:23.502Z,19.00
2022-10-01T14:40:52.222Z,19.00
2022-10-01T14:43:32.389Z,19.00
2022-10-01T14:46:10.675Z,18.90
2022-10-01T14:48:39.058Z,18.90
2022-10-01T14:51:23.572Z,18.90
2022-10-01T14:53:52.396Z,19.00
2022-10-01T14:56:20.463Z,19.00
2022-10-01T14:58:55.028Z,19.10
2022-10-01T15:01:25.838Z,19.10
2022-10-01T15:03:53.393Z,19.10
2022-10-01T15:06:29.761Z,19.00
2022-10-01T15:09:14.423Z,18.90
2022-10-01T15:11:44.693Z,18.90
2022-10-01T15:14:24.339Z,18.80
2022-10-01T15:16:51.975Z,18.70
2022-10-01T15:19:22.999Z,18.70
2022-10-01T15:21:52.666Z,18.70
2022-10-01T15:24:44.268Z,18.70
2022-10-01T15:27:18.669Z,18.70
2022-10-01T15:29:51.540Z,18.70
2022-10-01T15:32:24.472Z,18.60
2022-10-01T15:34:55.452Z,18.50
2022-10-01T15:37:34.309Z,18.50
2022-10-01T15:40:03.915Z,18.60
2022-10-01T15:42:34.187Z,18.50
2022-10-01T15:45:07.313Z,18.50
2022-10-01T15:47:51.768Z,18.40
2022-10-01T15:50:22.182Z,18.40
2022-10-01T15:52:55.534Z,18.40
2022-10-01T15:55:49.485Z,18.40
2022-10-01T15:58:27.005Z,18.40
2022-10-01T16:01:09.423Z,18.30
2022-10-01T16:04:08.018Z,18.30
2022-10-01T16:06:44.469Z,18.30
2022-10-01T16:09:23.935Z,18.30
2022-10-01T16:11:52.136Z,18.20
2022-10-01T16:14:23.405Z,18.20
2022-10-01T16:16:50.929Z,18.20
2022-10-01T16:19:28.995Z,18.10
2022-10-01T16:22:25.468Z,18.10
2022-10-01T16:24:57.659Z,18.10
2022-10-01T16:27:35.708Z,18.10
2022-10-01T16:30:11.963Z,18.10
2022-10-01T16:32:39.709Z,18.10
2022-10-01T16:35:18.235Z,18.10
2022-10-01T16:37:47.649Z,18.00
2022-10-01T16:40:16.370Z,17.90
2022-10-01T16:42:45.886Z,17.90
2022-10-01T16:45:16.245Z,17.80
2022-10-01T16:47:43.733Z,17.80
2022-10-01T16:50:13.781Z,17.70
2022-10-01T16:52:40.753Z,17.70
2022-10-01T16:55:27.245Z,17.60
2022-10-01T16:57:54.812Z,17.60
2022-10-01T17:00:25.662Z,17.50
2022-10-01T17:02:53.856Z,17.40
2022-10-01T17:05:41.199Z,17.40
2022-10-01T17:08:14.677Z,17.30
2022-10-01T17:11:11.935Z,17.20
2022-10-01T17:13:39.663Z,17.10
2022-10-01T17:16:06.864Z,17.10
2022-10-01T17:18:33.847Z,17.00
2022-10-01T17:21:04.148Z,16.90
2022-10-01T17:23:31.091Z,16.80
2022-10-01T17:25:58.188Z,16.80
2022-10-01T17:28:27.757Z,16.70
2022-10-01T17:30:54.883Z,16.60
2022-10-01T17:33:22.502Z,16.50
2022-10-01T17:35:55.633Z,16.40
2022-10-01T17:38:23.670Z,16.40
2022-10-01T17:40:56.493Z,16.30
2022-10-01T17:43:23.943Z,16.30
2022-10-01T17:45:57.614Z,16.30
2022-10-01T17:48:26.982Z,16.30
2022-10-01T17:51:21.053Z,16.20
2022-10-01T17:53:48.244Z,16.20
2022-10-01T17:56:18.001Z,16.20
2022-10-01T17:58:46.181Z,16.20
2022-10-01T18:01:19.950Z,16.20
2022-10-01T18:03:47.334Z,16.20
2022-10-01T18:06:15.401Z,16.20
2022-10-01T18:08:56.957Z,16.10
2022-10-01T18:11:29.231Z,16.10
2022-10-01T18:13:56.249Z,16.10
2022-10-01T18:16:24.183Z,16.00
2022-10-01T18:21:47.478Z,16.00
2022-10-01T18:24:15.503Z,16.00
2022-10-01T18:26:42.640Z,15.90
2022-10-01T18:29:17.227Z,15.90
2022-10-01T18:31:47.224Z,15.80
2022-10-01T18:34:38.641Z,15.80
2022-10-01T18:37:21.483Z,15.60
2022-10-01T18:40:00.251Z,15.60
2022-10-01T18:43:00.302Z,15.50
2022-10-01T18:45:55.002Z,15.60
2022-10-01T18:48:42.659Z,15.60
2022-10-01T18:51:37.489Z,15.50
2022-10-01T18:54:34.302Z,15.50
2022-10-01T18:57:18.865Z,15.50
2022-10-01T19:00:08.628Z,15.40
2022-10-01T19:02:57.275Z,15.40
2022-10-01T19:05:46.491Z,15.50
2022-10-01T19:08:23.712Z,15.40
2022-10-01T19:11:01.411Z,15.40
2022-10-01T19:13:45.315Z,15.40
2022-10-01T19:16:39.764Z,15.30
2022-10-01T19:19:46.404Z,15.20
2022-10-01T19:23:00.948Z,15.20
2022-10-01T19:25:36.829Z,15.30
2022-10-01T19:28:09.502Z,15.30
2022-10-01T19:31:22.465Z,15.30
2022-10-01T19:33:57.230Z,15.30
2022-10-01T19:36:37.005Z,15.30
2022-10-01T19:39:15.010Z,15.30
2022-10-01T19:41:57.694Z,15.30
2022-10-01T19:44:33.498Z,15.30
2022-10-01T19:47:34.134Z,15.40
2022-10-01T19:50:15.773Z,15.30
2022-10-01T19:52:45.793Z,15.40
2022-10-01T19:55:20.130Z,15.30
2022-10-01T19:57:47.404Z,15.30
2022-10-01T20:00:19.934Z,15.30
2022-10-01T20:02:58.076Z,15.30
2022-10-01T20:05:34.013Z,15.30
2022-10-01T20:08:38.994Z,15.40
2022-10-01T20:11:25.097Z,15.30
2022-10-01T20:14:08.307Z,15.30
2022-10-01T20:16:43.761Z,15.40
2022-10-01T20:19:43.835Z,15.40
2022-10-01T20:23:02.702Z,15.40
2022-10-01T20:25:43.901Z,15.50
2022-10-01T20:28:24.899Z,15.50
2022-10-01T20:31:03.437Z,15.50
2022-10-01T20:33:56.688Z,15.50
2022-10-01T20:36:53.079Z,15.50
2022-10-01T20:39:32.722Z,15.50
2022-10-01T20:42:01.095Z,15.50
2022-10-01T20:44:34.009Z,15.50
2022-10-01T20:47:16.819Z,15.50
2022-10-01T20:49:53.887Z,15.50
2022-10-01T20:52:34.526Z,15.50
2022-10-01T20:55:14.380Z,15.50
2022-10-01T20:57:50.859Z,15.50
2022-10-01T21:00:23.521Z,15.50
2022-10-01T21:03:20.601Z,15.50
2022-10-01T21:06:01.152Z,15.50
2022-10-01T21:08:41.338Z,15.50
2022-10-01T21:11:17.920Z,15.50
2022-10-01T21:14:25.300Z,15.50
2022-10-01T21:16:58.194Z,15.50
2022-10-01T21:19:43.684Z,15.50
2022-10-01T21:22:29.270Z,15.50
2022-10-01T21:25:38.184Z,15.40
2022-10-01T21:28:50.364Z,15.40
2022-10-01T21:31:45.119Z,15.40
2022-10-01T21:34:41.283Z,15.40
2022-10-01T21:37:16.912Z,15.40
2022-10-01T21:40:07.042Z,15.40
2022-10-01T21:43:14.874Z,15.40
2022-10-01T21:46:12.680Z,15.40
2022-10-01T21:49:09.913Z,15.40
2022-10-01T21:52:03.871Z,15.40
2022-10-01T21:55:05.356Z,15.30
2022-10-01T21:58:12.052Z,15.30
2022-10-01T22:00:39.173Z,15.20
2022-10-01T22:03:11.150Z,15.30
2022-10-01T22:05:40.027Z,15.30
2022-10-01T22:08:43.743Z,15.30
2022-10-01T22:11:23.282Z,15.30
2022-10-01T22:14:02.107Z,15.30
2022-10-01T22:16:58.003Z,15.30
2022-10-01T22:19:29.876Z,15.30
2022-10-01T22:22:07.699Z,15.30
2022-10-01T22:24:50.010Z,15.30
2022-10-01T22:27:44.279Z,15.30
2022-10-01T22:30:23.773Z,15.30
2022-10-01T22:33:10.725Z,15.30
2022-10-01T22:35:45.991Z,15.30
2022-10-01T22:38:37.128Z,15.40
2022-10-01T22:41:27.936Z,15.40
2022-10-01T22:43:55.263Z,15.40
2022-10-01T22:46:54.377Z,15.40
2022-10-01T22:49:51.386Z,15.40
2022-10-01T22:52:45.282Z,15.40
2022-10-01T22:55:33.295Z,15.30
2022-10-01T22:58:10.569Z,15.40
2022-10-01T23:01:06.481Z,15.40
2022-10-01T23:03:53.867Z,15.40
2022-10-01T23:07:00.466Z,15.30
2022-10-01T23:09:37.087Z,15.30
2022-10-01T23:12:32.330Z,15.40
2022-10-01T23:15:27.372Z,15.40
2022-10-01T23:18:50.972Z,15.40
2022-10-01T23:21:49.560Z,15.40
2022-10-01T23:24:40.996Z,15.40
2022-10-01T23:27:30.250Z,15.50
2022-10-01T23:30:20.182Z,15.40
2022-10-01T23:33:11.881Z,15.50
2022-10-01T23:35:48.792Z,15.50
2022-10-01T23:38:46.708Z,15.50
2022-10-01T23:42:09.590Z,15.50
2022-10-01T23:44:43.709Z,15.50
2022-10-01T23:47:22.771Z,15.50
2022-10-01T23:49:56.328Z,15.50
2022-10-01T23:52:43.918Z,15.50
2022-10-01T23:55:47.252Z,15.60
2022-10-01T23:58:16.077Z,15.60
